sensor_id;sensor_type;location;lat;lon;timestamp;P1;durP1;ratioP1;P2;durP2;ratioP2
24383;SDS011;12504;52.870;8.798;2023-02-15T00:01:14;93.05;;;21.65;;
24383;SDS011;12504;52.870;8.798;2023-02-15T00:03:40;91.13;;;22.83;;
24383;SDS011;12504;52.870;8.798;2023-02-15T00:06:06;97.85;;;21.73;;
24383;SDS011;12504;52.870;8.798;2023-02-15T00:08:32;63.28;;;19.25;;
24383;SDS011;12504;52.870;8.798;2023-02-15T00:11:04;103.95;;;23.00;;
24383;SDS011;12504;52.870;8.798;2023-02-15T00:13:31;76.95;;;20.23;;
24383;SDS011;12504;52.870;8.798;2023-02-15T00:16:01;103.60;;;23.50;;
24383;SDS011;12504;52.870;8.798;2023-02-15T00:18:27;126.43;;;28.83;;
24383;SDS011;12504;52.870;8.798;2023-02-15T00:20:53;86.13;;;22.75;;
24383;SDS011;12504;52.870;8.798;2023-02-15T00:23:19;142.80;;;27.73;;
24383;SDS011;12504;52.870;8.798;2023-02-15T00:25:44;90.43;;;24.25;;
24383;SDS011;12504;52.870;8.798;2023-02-15T00:28:10;96.28;;;23.30;;
24383;SDS011;12504;52.870;8.798;2023-02-15T00:30:36;153.40;;;28.27;;
24383;SDS011;12504;52.870;8.798;2023-02-15T00:33:01;72.00;;;25.02;;
24383;SDS011;12504;52.870;8.798;2023-02-15T00:35:27;90.97;;;25.02;;
24383;SDS011;12504;52.870;8.798;2023-02-15T00:37:52;56.38;;;20.33;;
24383;SDS011;12504;52.870;8.798;2023-02-15T00:40:18;89.20;;;24.90;;
24383;SDS011;12504;52.870;8.798;2023-02-15T00:42:44;68.88;;;21.50;;
24383;SDS011;12504;52.870;8.798;2023-02-15T00:45:11;81.50;;;21.50;;
24383;SDS011;12504;52.870;8.798;2023-02-15T00:47:36;90.68;;;24.83;;
24383;SDS011;12504;52.870;8.798;2023-02-15T00:50:02;49.75;;;21.95;;
24383;SDS011;12504;52.870;8.798;2023-02-15T00:52:28;60.75;;;21.52;;
24383;SDS011;12504;52.870;8.798;2023-02-15T00:54:54;42.38;;;19.73;;
24383;SDS011;12504;52.870;8.798;2023-02-15T00:57:20;51.20;;;19.63;;
24383;SDS011;12504;52.870;8.798;2023-02-15T00:59:46;43.35;;;19.95;;
24383;SDS011;12504;52.870;8.798;2023-02-15T01:02:11;50.40;;;21.02;;
24383;SDS011;12504;52.870;8.798;2023-02-15T01:04:37;58.28;;;20.58;;
24383;SDS011;12504;52.870;8.798;2023-02-15T01:07:03;59.58;;;21.77;;
24383;SDS011;12504;52.870;8.798;2023-02-15T01:09:32;120.63;;;25.80;;
24383;SDS011;12504;52.870;8.798;2023-02-15T01:11:57;87.38;;;24.88;;
24383;SDS011;12504;52.870;8.798;2023-02-15T01:14:25;93.97;;;23.50;;
24383;SDS011;12504;52.870;8.798;2023-02-15T01:16:51;112.78;;;24.75;;
24383;SDS011;12504;52.870;8.798;2023-02-15T01:19:16;120.05;;;25.67;;
24383;SDS011;12504;52.870;8.798;2023-02-15T01:21:42;72.25;;;22.23;;
24383;SDS011;12504;52.870;8.798;2023-02-15T01:24:12;86.80;;;23.10;;
24383;SDS011;12504;52.870;8.798;2023-02-15T01:26:38;61.47;;;21.45;;
24383;SDS011;12504;52.870;8.798;2023-02-15T01:29:04;86.43;;;21.10;;
24383;SDS011;12504;52.870;8.798;2023-02-15T01:31:30;48.95;;;20.38;;
24383;SDS011;12504;52.870;8.798;2023-02-15T01:33:56;52.03;;;20.92;;
24383;SDS011;12504;52.870;8.798;2023-02-15T01:36:21;49.85;;;20.40;;
24383;SDS011;12504;52.870;8.798;2023-02-15T01:38:47;44.75;;;20.98;;
24383;SDS011;12504;52.870;8.798;2023-02-15T01:41:14;46.78;;;21.75;;
24383;SDS011;12504;52.870;8.798;2023-02-15T01:46:52;48.22;;;19.95;;
24383;SDS011;12504;52.870;8.798;2023-02-15T01:49:19;36.83;;;19.85;;
24383;SDS011;12504;52.870;8.798;2023-02-15T01:51:50;45.17;;;20.48;;
24383;SDS011;12504;52.870;8.798;2023-02-15T01:54:21;46.88;;;21.63;;
24383;SDS011;12504;52.870;8.798;2023-02-15T01:56:52;42.53;;;19.83;;
24383;SDS011;12504;52.870;8.798;2023-02-15T01:59:23;67.90;;;19.85;;
24383;SDS011;12504;52.870;8.798;2023-02-15T02:01:51;57.58;;;21.25;;
24383;SDS011;12504;52.870;8.798;2023-02-15T02:06:55;52.13;;;22.15;;
24383;SDS011;12504;52.870;8.798;2023-02-15T02:09:22;59.20;;;21.40;;
24383;SDS011;12504;52.870;8.798;2023-02-15T02:11:49;52.17;;;19.52;;
24383;SDS011;12504;52.870;8.798;2023-02-15T02:14:15;80.78;;;20.73;;
24383;SDS011;12504;52.870;8.798;2023-02-15T02:19:37;52.28;;;22.15;;
24383;SDS011;12504;52.870;8.798;2023-02-15T02:25:07;48.60;;;21.13;;
24383;SDS011;12504;52.870;8.798;2023-02-15T02:27:50;49.47;;;19.92;;
24383;SDS011;12504;52.870;8.798;2023-02-15T02:30:33;46.10;;;21.92;;
24383;SDS011;12504;52.870;8.798;2023-02-15T02:35:53;49.42;;;22.08;;
24383;SDS011;12504;52.870;8.798;2023-02-15T02:46:50;51.72;;;21.50;;
24383;SDS011;12504;52.870;8.798;2023-02-15T02:49:28;68.00;;;22.63;;
24383;SDS011;12504;52.870;8.798;2023-02-15T02:51:57;56.30;;;22.33;;
24383;SDS011;12504;52.870;8.798;2023-02-15T02:54:24;59.15;;;22.42;;
24383;SDS011;12504;52.870;8.798;2023-02-15T02:56:50;52.35;;;25.63;;
24383;SDS011;12504;52.870;8.798;2023-02-15T02:59:25;43.33;;;20.58;;
24383;SDS011;12504;52.870;8.798;2023-02-15T03:04:34;47.33;;;22.13;;
24383;SDS011;12504;52.870;8.798;2023-02-15T03:07:05;45.45;;;21.33;;
24383;SDS011;12504;52.870;8.798;2023-02-15T03:09:37;52.60;;;22.75;;
24383;SDS011;12504;52.870;8.798;2023-02-15T03:12:13;44.67;;;21.27;;
24383;SDS011;12504;52.870;8.798;2023-02-15T03:14:44;43.50;;;21.35;;
24383;SDS011;12504;52.870;8.798;2023-02-15T03:17:15;58.45;;;22.40;;
24383;SDS011;12504;52.870;8.798;2023-02-15T03:19:44;46.63;;;21.63;;
24383;SDS011;12504;52.870;8.798;2023-02-15T03:22:14;40.85;;;22.42;;
24383;SDS011;12504;52.870;8.798;2023-02-15T03:24:56;48.80;;;23.67;;
24383;SDS011;12504;52.870;8.798;2023-02-15T03:27:34;51.00;;;21.98;;
24383;SDS011;12504;52.870;8.798;2023-02-15T03:30:04;50.28;;;24.05;;
24383;SDS011;12504;52.870;8.798;2023-02-15T03:32:32;44.38;;;22.10;;
24383;SDS011;12504;52.870;8.798;2023-02-15T03:34:59;38.67;;;20.50;;
24383;SDS011;12504;52.870;8.798;2023-02-15T03:37:47;38.45;;;19.92;;
24383;SDS011;12504;52.870;8.798;2023-02-15T03:40:34;41.42;;;20.27;;
24383;SDS011;12504;52.870;8.798;2023-02-15T03:49:16;45.25;;;21.23;;
24383;SDS011;12504;52.870;8.798;2023-02-15T03:51:49;44.63;;;21.35;;
24383;SDS011;12504;52.870;8.798;2023-02-15T03:54:27;37.20;;;21.55;;
24383;SDS011;12504;52.870;8.798;2023-02-15T03:57:24;40.53;;;21.48;;
24383;SDS011;12504;52.870;8.798;2023-02-15T04:05:43;40.33;;;20.58;;
24383;SDS011;12504;52.870;8.798;2023-02-15T04:08:09;39.85;;;22.40;;
24383;SDS011;12504;52.870;8.798;2023-02-15T04:10:35;43.50;;;23.08;;
24383;SDS011;12504;52.870;8.798;2023-02-15T04:13:21;36.45;;;21.38;;
24383;SDS011;12504;52.870;8.798;2023-02-15T04:15:48;36.60;;;21.55;;
24383;SDS011;12504;52.870;8.798;2023-02-15T04:18:34;50.25;;;23.73;;
24383;SDS011;12504;52.870;8.798;2023-02-15T04:21:21;40.40;;;20.52;;
24383;SDS011;12504;52.870;8.798;2023-02-15T04:24:06;39.10;;;21.35;;
24383;SDS011;12504;52.870;8.798;2023-02-15T04:26:51;40.92;;;22.40;;
24383;SDS011;12504;52.870;8.798;2023-02-15T04:29:21;44.00;;;22.00;;
24383;SDS011;12504;52.870;8.798;2023-02-15T04:31:48;46.25;;;20.98;;
24383;SDS011;12504;52.870;8.798;2023-02-15T04:34:14;45.63;;;24.08;;
24383;SDS011;12504;52.870;8.798;2023-02-15T04:36:40;46.85;;;23.15;;
24383;SDS011;12504;52.870;8.798;2023-02-15T04:39:06;42.38;;;20.83;;
24383;SDS011;12504;52.870;8.798;2023-02-15T04:41:33;46.30;;;23.40;;
24383;SDS011;12504;52.870;8.798;2023-02-15T04:43:59;45.53;;;21.70;;
24383;SDS011;12504;52.870;8.798;2023-02-15T04:46:25;40.78;;;21.52;;
24383;SDS011;12504;52.870;8.798;2023-02-15T04:48:51;45.53;;;21.45;;
24383;SDS011;12504;52.870;8.798;2023-02-15T04:51:17;43.22;;;22.48;;
24383;SDS011;12504;52.870;8.798;2023-02-15T04:53:43;46.05;;;23.08;;
24383;SDS011;12504;52.870;8.798;2023-02-15T04:56:09;42.25;;;21.48;;
24383;SDS011;12504;52.870;8.798;2023-02-15T04:58:34;42.05;;;22.73;;
24383;SDS011;12504;52.870;8.798;2023-02-15T05:01:01;38.33;;;21.02;;
24383;SDS011;12504;52.870;8.798;2023-02-15T05:03:28;47.13;;;22.95;;
24383;SDS011;12504;52.870;8.798;2023-02-15T05:05:53;41.97;;;23.13;;
24383;SDS011;12504;52.870;8.798;2023-02-15T05:08:19;43.53;;;22.75;;
24383;SDS011;12504;52.870;8.798;2023-02-15T05:10:47;52.53;;;25.23;;
24383;SDS011;12504;52.870;8.798;2023-02-15T05:13:14;52.70;;;23.02;;
24383;SDS011;12504;52.870;8.798;2023-02-15T05:15:39;42.67;;;22.33;;
24383;SDS011;12504;52.870;8.798;2023-02-15T05:18:05;39.97;;;22.48;;
24383;SDS011;12504;52.870;8.798;2023-02-15T05:20:32;48.63;;;23.75;;
24383;SDS011;12504;52.870;8.798;2023-02-15T05:22:58;41.45;;;21.73;;
24383;SDS011;12504;52.870;8.798;2023-02-15T05:25:24;42.83;;;22.25;;
24383;SDS011;12504;52.870;8.798;2023-02-15T05:28:11;47.67;;;23.20;;
24383;SDS011;12504;52.870;8.798;2023-02-15T05:30:47;40.28;;;21.45;;
24383;SDS011;12504;52.870;8.798;2023-02-15T05:33:14;41.33;;;22.40;;
24383;SDS011;12504;52.870;8.798;2023-02-15T05:35:40;41.17;;;23.02;;
24383;SDS011;12504;52.870;8.798;2023-02-15T05:38:05;47.03;;;22.77;;
24383;SDS011;12504;52.870;8.798;2023-02-15T05:40:31;49.45;;;25.15;;
24383;SDS011;12504;52.870;8.798;2023-02-15T05:42:57;41.92;;;23.33;;
24383;SDS011;12504;52.870;8.798;2023-02-15T05:45:23;46.35;;;23.55;;
24383;SDS011;12504;52.870;8.798;2023-02-15T05:47:49;39.88;;;24.17;;
24383;SDS011;12504;52.870;8.798;2023-02-15T05:50:15;45.38;;;22.80;;
24383;SDS011;12504;52.870;8.798;2023-02-15T05:52:40;44.22;;;22.23;;
24383;SDS011;12504;52.870;8.798;2023-02-15T05:55:06;40.00;;;21.88;;
24383;SDS011;12504;52.870;8.798;2023-02-15T05:57:34;51.05;;;25.33;;
24383;SDS011;12504;52.870;8.798;2023-02-15T06:00:00;42.70;;;25.38;;
24383;SDS011;12504;52.870;8.798;2023-02-15T06:02:36;45.65;;;24.23;;
24383;SDS011;12504;52.870;8.798;2023-02-15T06:05:03;46.58;;;21.70;;
24383;SDS011;12504;52.870;8.798;2023-02-15T06:07:29;44.45;;;22.42;;
24383;SDS011;12504;52.870;8.798;2023-02-15T06:09:55;45.00;;;21.60;;
24383;SDS011;12504;52.870;8.798;2023-02-15T06:12:21;42.70;;;21.83;;
24383;SDS011;12504;52.870;8.798;2023-02-15T06:14:47;45.25;;;22.17;;
24383;SDS011;12504;52.870;8.798;2023-02-15T06:17:12;50.85;;;24.50;;
24383;SDS011;12504;52.870;8.798;2023-02-15T06:19:38;48.85;;;23.48;;
24383;SDS011;12504;52.870;8.798;2023-02-15T06:22:04;48.13;;;23.08;;
24383;SDS011;12504;52.870;8.798;2023-02-15T06:24:31;41.95;;;23.45;;
24383;SDS011;12504;52.870;8.798;2023-02-15T06:26:57;46.03;;;21.95;;
24383;SDS011;12504;52.870;8.798;2023-02-15T06:29:23;43.63;;;23.73;;
24383;SDS011;12504;52.870;8.798;2023-02-15T06:31:48;43.15;;;23.38;;
24383;SDS011;12504;52.870;8.798;2023-02-15T06:34:14;42.47;;;23.15;;
24383;SDS011;12504;52.870;8.798;2023-02-15T06:36:40;42.40;;;22.08;;
24383;SDS011;12504;52.870;8.798;2023-02-15T06:39:06;39.40;;;21.73;;
24383;SDS011;12504;52.870;8.798;2023-02-15T06:41:32;44.35;;;22.83;;
24383;SDS011;12504;52.870;8.798;2023-02-15T06:43:57;49.10;;;23.45;;
24383;SDS011;12504;52.870;8.798;2023-02-15T06:46:23;47.83;;;22.95;;
24383;SDS011;12504;52.870;8.798;2023-02-15T06:48:49;46.65;;;22.80;;
24383;SDS011;12504;52.870;8.798;2023-02-15T06:51:14;46.08;;;23.52;;
24383;SDS011;12504;52.870;8.798;2023-02-15T06:53:40;41.17;;;21.63;;
24383;SDS011;12504;52.870;8.798;2023-02-15T06:56:08;46.92;;;23.73;;
24383;SDS011;12504;52.870;8.798;2023-02-15T06:58:37;45.00;;;22.67;;
24383;SDS011;12504;52.870;8.798;2023-02-15T07:01:04;48.50;;;23.80;;
24383;SDS011;12504;52.870;8.798;2023-02-15T07:03:30;44.95;;;23.10;;
24383;SDS011;12504;52.870;8.798;2023-02-15T07:05:57;42.28;;;20.88;;
24383;SDS011;12504;52.870;8.798;2023-02-15T07:08:24;47.22;;;24.08;;
24383;SDS011;12504;52.870;8.798;2023-02-15T07:10:51;50.15;;;23.30;;
24383;SDS011;12504;52.870;8.798;2023-02-15T07:13:18;59.53;;;25.35;;
24383;SDS011;12504;52.870;8.798;2023-02-15T07:15:45;40.03;;;22.65;;
24383;SDS011;12504;52.870;8.798;2023-02-15T07:18:12;52.35;;;26.42;;
24383;SDS011;12504;52.870;8.798;2023-02-15T07:20:38;47.72;;;22.55;;
24383;SDS011;12504;52.870;8.798;2023-02-15T07:23:05;54.00;;;25.58;;
24383;SDS011;12504;52.870;8.798;2023-02-15T07:25:31;51.72;;;25.15;;
24383;SDS011;12504;52.870;8.798;2023-02-15T07:28:00;41.70;;;23.45;;
24383;SDS011;12504;52.870;8.798;2023-02-15T07:32:56;45.67;;;24.00;;
24383;SDS011;12504;52.870;8.798;2023-02-15T07:35:51;48.72;;;25.20;;
24383;SDS011;12504;52.870;8.798;2023-02-15T07:38:19;55.63;;;25.80;;
24383;SDS011;12504;52.870;8.798;2023-02-15T07:40:46;54.58;;;26.55;;
24383;SDS011;12504;52.870;8.798;2023-02-15T07:43:12;56.28;;;27.17;;
24383;SDS011;12504;52.870;8.798;2023-02-15T07:45:40;62.33;;;29.38;;
24383;SDS011;12504;52.870;8.798;2023-02-15T07:48:06;63.45;;;28.42;;
24383;SDS011;12504;52.870;8.798;2023-02-15T07:50:32;64.78;;;32.05;;
24383;SDS011;12504;52.870;8.798;2023-02-15T07:53:00;62.60;;;30.17;;
24383;SDS011;12504;52.870;8.798;2023-02-15T07:55:27;58.30;;;29.52;;
24383;SDS011;12504;52.870;8.798;2023-02-15T07:57:53;59.90;;;29.95;;
24383;SDS011;12504;52.870;8.798;2023-02-15T08:00:19;62.70;;;29.80;;
24383;SDS011;12504;52.870;8.798;2023-02-15T08:02:58;65.57;;;30.80;;
24383;SDS011;12504;52.870;8.798;2023-02-15T08:05:42;62.25;;;31.58;;
24383;SDS011;12504;52.870;8.798;2023-02-15T08:08:09;65.90;;;30.73;;
24383;SDS011;12504;52.870;8.798;2023-02-15T08:10:58;62.88;;;30.08;;
24383;SDS011;12504;52.870;8.798;2023-02-15T08:13:43;60.20;;;29.58;;
24383;SDS011;12504;52.870;8.798;2023-02-15T08:16:40;55.20;;;30.13;;
24383;SDS011;12504;52.870;8.798;2023-02-15T08:19:27;67.55;;;29.77;;
24383;SDS011;12504;52.870;8.798;2023-02-15T08:21:56;60.40;;;30.35;;
24383;SDS011;12504;52.870;8.798;2023-02-15T08:24:25;64.07;;;30.63;;
24383;SDS011;12504;52.870;8.798;2023-02-15T08:26:53;58.05;;;31.20;;
24383;SDS011;12504;52.870;8.798;2023-02-15T08:29:20;66.40;;;32.50;;
24383;SDS011;12504;52.870;8.798;2023-02-15T08:31:56;69.20;;;33.10;;
24383;SDS011;12504;52.870;8.798;2023-02-15T08:34:27;63.03;;;31.30;;
24383;SDS011;12504;52.870;8.798;2023-02-15T08:36:54;68.40;;;34.03;;
24383;SDS011;12504;52.870;8.798;2023-02-15T08:39:19;64.78;;;31.23;;
24383;SDS011;12504;52.870;8.798;2023-02-15T08:41:45;64.18;;;33.03;;
24383;SDS011;12504;52.870;8.798;2023-02-15T08:44:13;66.10;;;32.75;;
24383;SDS011;12504;52.870;8.798;2023-02-15T08:46:40;69.45;;;33.72;;
24383;SDS011;12504;52.870;8.798;2023-02-15T08:49:08;81.65;;;35.35;;
24383;SDS011;12504;52.870;8.798;2023-02-15T08:51:37;65.40;;;33.47;;
24383;SDS011;12504;52.870;8.798;2023-02-15T08:54:04;69.68;;;33.63;;
24383;SDS011;12504;52.870;8.798;2023-02-15T08:56:33;71.07;;;35.72;;
24383;SDS011;12504;52.870;8.798;2023-02-15T08:59:00;92.20;;;48.70;;
24383;SDS011;12504;52.870;8.798;2023-02-15T09:01:27;79.10;;;42.22;;
24383;SDS011;12504;52.870;8.798;2023-02-15T09:03:55;85.28;;;45.17;;
24383;SDS011;12504;52.870;8.798;2023-02-15T09:06:26;77.75;;;41.63;;
24383;SDS011;12504;52.870;8.798;2023-02-15T09:08:54;64.80;;;33.38;;
24383;SDS011;12504;52.870;8.798;2023-02-15T09:11:22;76.00;;;42.28;;
24383;SDS011;12504;52.870;8.798;2023-02-15T09:13:57;66.45;;;38.08;;
24383;SDS011;12504;52.870;8.798;2023-02-15T09:16:26;65.68;;;34.55;;
24383;SDS011;12504;52.870;8.798;2023-02-15T09:18:54;65.13;;;34.60;;
24383;SDS011;12504;52.870;8.798;2023-02-15T09:21:22;68.38;;;31.85;;
24383;SDS011;12504;52.870;8.798;2023-02-15T09:23:50;71.00;;;35.58;;
24383;SDS011;12504;52.870;8.798;2023-02-15T09:26:20;68.45;;;32.97;;
24383;SDS011;12504;52.870;8.798;2023-02-15T09:28:47;67.38;;;30.92;;
24383;SDS011;12504;52.870;8.798;2023-02-15T09:31:17;61.37;;;32.13;;
24383;SDS011;12504;52.870;8.798;2023-02-15T09:33:45;65.30;;;30.38;;
24383;SDS011;12504;52.870;8.798;2023-02-15T09:36:16;68.13;;;32.83;;
24383;SDS011;12504;52.870;8.798;2023-02-15T09:38:46;59.65;;;32.70;;
24383;SDS011;12504;52.870;8.798;2023-02-15T09:52:31;58.95;;;28.33;;
24383;SDS011;12504;52.870;8.798;2023-02-15T10:03:33;53.40;;;28.15;;
24383;SDS011;12504;52.870;8.798;2023-02-15T10:09:29;49.70;;;24.20;;
24383;SDS011;12504;52.870;8.798;2023-02-15T10:12:39;50.47;;;24.40;;
24383;SDS011;12504;52.870;8.798;2023-02-15T10:15:23;49.92;;;24.13;;
24383;SDS011;12504;52.870;8.798;2023-02-15T10:26:16;36.38;;;20.65;;
24383;SDS011;12504;52.870;8.798;2023-02-15T10:34:08;47.80;;;21.88;;
24383;SDS011;12504;52.870;8.798;2023-02-15T10:36:53;38.97;;;22.30;;
24383;SDS011;12504;52.870;8.798;2023-02-15T10:42:45;42.25;;;22.83;;
24383;SDS011;12504;52.870;8.798;2023-02-15T10:48:36;45.50;;;24.50;;
24383;SDS011;12504;52.870;8.798;2023-02-15T10:51:11;36.65;;;21.42;;
24383;SDS011;12504;52.870;8.798;2023-02-15T10:54:05;40.85;;;22.73;;
24383;SDS011;12504;52.870;8.798;2023-02-15T10:56:49;48.58;;;25.13;;
24383;SDS011;12504;52.870;8.798;2023-02-15T10:59:35;40.72;;;23.92;;
24383;SDS011;12504;52.870;8.798;2023-02-15T11:05:33;43.92;;;23.80;;
24383;SDS011;12504;52.870;8.798;2023-02-15T11:08:19;39.78;;;22.70;;
24383;SDS011;12504;52.870;8.798;2023-02-15T11:10:49;39.00;;;21.98;;
24383;SDS011;12504;52.870;8.798;2023-02-15T11:13:19;48.38;;;23.67;;
24383;SDS011;12504;52.870;8.798;2023-02-15T11:15:55;41.75;;;24.17;;
24383;SDS011;12504;52.870;8.798;2023-02-15T11:20:58;39.13;;;21.70;;
24383;SDS011;12504;52.870;8.798;2023-02-15T11:23:27;44.15;;;24.45;;
24383;SDS011;12504;52.870;8.798;2023-02-15T11:25:57;39.53;;;22.58;;
24383;SDS011;12504;52.870;8.798;2023-02-15T11:28:30;41.97;;;23.98;;
24383;SDS011;12504;52.870;8.798;2023-02-15T11:31:00;41.33;;;22.02;;
24383;SDS011;12504;52.870;8.798;2023-02-15T11:33:37;48.03;;;23.77;;
24383;SDS011;12504;52.870;8.798;2023-02-15T11:36:29;41.97;;;20.92;;
24383;SDS011;12504;52.870;8.798;2023-02-15T11:38:59;43.10;;;21.70;;
24383;SDS011;12504;52.870;8.798;2023-02-15T11:41:29;39.45;;;21.80;;
24383;SDS011;12504;52.870;8.798;2023-02-15T11:44:02;42.10;;;21.20;;
24383;SDS011;12504;52.870;8.798;2023-02-15T11:46:37;33.92;;;18.90;;
24383;SDS011;12504;52.870;8.798;2023-02-15T11:49:08;27.77;;;16.50;;
24383;SDS011;12504;52.870;8.798;2023-02-15T11:51:55;24.92;;;15.20;;
24383;SDS011;12504;52.870;8.798;2023-02-15T11:54:24;26.33;;;15.90;;
24383;SDS011;12504;52.870;8.798;2023-02-15T11:56:56;26.60;;;16.23;;
24383;SDS011;12504;52.870;8.798;2023-02-15T11:59:32;32.08;;;17.50;;
24383;SDS011;12504;52.870;8.798;2023-02-15T12:02:01;33.30;;;17.77;;
24383;SDS011;12504;52.870;8.798;2023-02-15T12:04:38;29.98;;;16.33;;
24383;SDS011;12504;52.870;8.798;2023-02-15T12:07:11;27.50;;;17.08;;
24383;SDS011;12504;52.870;8.798;2023-02-15T12:12:53;29.98;;;17.42;;
24383;SDS011;12504;52.870;8.798;2023-02-15T12:15:39;29.75;;;18.20;;
24383;SDS011;12504;52.870;8.798;2023-02-15T12:18:17;34.65;;;19.33;;
24383;SDS011;12504;52.870;8.798;2023-02-15T12:20:46;28.00;;;18.45;;
24383;SDS011;12504;52.870;8.798;2023-02-15T12:23:12;32.60;;;18.00;;
24383;SDS011;12504;52.870;8.798;2023-02-15T12:31:32;32.22;;;17.08;;
24383;SDS011;12504;52.870;8.798;2023-02-15T12:34:02;30.30;;;17.90;;
24383;SDS011;12504;52.870;8.798;2023-02-15T12:36:42;31.25;;;18.08;;
24383;SDS011;12504;52.870;8.798;2023-02-15T12:39:22;33.38;;;17.33;;
24383;SDS011;12504;52.870;8.798;2023-02-15T12:44:24;33.20;;;17.92;;
24383;SDS011;12504;52.870;8.798;2023-02-15T12:49:31;32.20;;;18.25;;
24383;SDS011;12504;52.870;8.798;2023-02-15T12:52:05;26.20;;;16.27;;
24383;SDS011;12504;52.870;8.798;2023-02-15T12:54:38;34.80;;;18.70;;
24383;SDS011;12504;52.870;8.798;2023-02-15T12:57:29;28.77;;;17.52;;
24383;SDS011;12504;52.870;8.798;2023-02-15T13:02:58;27.73;;;15.95;;
24383;SDS011;12504;52.870;8.798;2023-02-15T13:05:37;34.08;;;17.83;;
24383;SDS011;12504;52.870;8.798;2023-02-15T13:10:37;30.50;;;18.15;;
24383;SDS011;12504;52.870;8.798;2023-02-15T13:13:18;29.98;;;16.23;;
24383;SDS011;12504;52.870;8.798;2023-02-15T13:15:53;32.10;;;17.75;;
24383;SDS011;12504;52.870;8.798;2023-02-15T13:18:44;29.83;;;18.88;;
24383;SDS011;12504;52.870;8.798;2023-02-15T13:21:18;30.10;;;15.82;;
24383;SDS011;12504;52.870;8.798;2023-02-15T13:23:47;32.88;;;17.05;;
24383;SDS011;12504;52.870;8.798;2023-02-15T13:26:19;30.05;;;17.67;;
24383;SDS011;12504;52.870;8.798;2023-02-15T13:28:48;29.23;;;16.65;;
24383;SDS011;12504;52.870;8.798;2023-02-15T13:31:18;26.95;;;16.92;;
24383;SDS011;12504;52.870;8.798;2023-02-15T13:33:52;31.10;;;17.48;;
24383;SDS011;12504;52.870;8.798;2023-02-15T13:36:34;27.25;;;17.58;;
24383;SDS011;12504;52.870;8.798;2023-02-15T13:42:23;28.77;;;18.85;;
24383;SDS011;12504;52.870;8.798;2023-02-15T13:58:13;33.60;;;17.95;;
24383;SDS011;12504;52.870;8.798;2023-02-15T14:15:14;26.70;;;15.27;;
24383;SDS011;12504;52.870;8.798;2023-02-15T14:29:07;35.03;;;16.77;;
24383;SDS011;12504;52.870;8.798;2023-02-15T14:31:46;35.40;;;19.35;;
24383;SDS011;12504;52.870;8.798;2023-02-15T14:34:19;32.83;;;18.65;;
24383;SDS011;12504;52.870;8.798;2023-02-15T14:36:49;32.45;;;17.60;;
24383;SDS011;12504;52.870;8.798;2023-02-15T14:39:31;31.88;;;18.60;;
24383;SDS011;12504;52.870;8.798;2023-02-15T14:42:51;30.98;;;17.27;;
24383;SDS011;12504;52.870;8.798;2023-02-15T14:48:10;37.92;;;19.48;;
24383;SDS011;12504;52.870;8.798;2023-02-15T14:50:42;30.75;;;18.60;;
24383;SDS011;12504;52.870;8.798;2023-02-15T14:53:32;39.47;;;19.02;;
24383;SDS011;12504;52.870;8.798;2023-02-15T14:56:20;35.72;;;18.98;;
24383;SDS011;12504;52.870;8.798;2023-02-15T15:01:15;39.10;;;19.58;;
24383;SDS011;12504;52.870;8.798;2023-02-15T15:03:47;35.30;;;19.27;;
24383;SDS011;12504;52.870;8.798;2023-02-15T15:06:23;35.10;;;19.30;;
24383;SDS011;12504;52.870;8.798;2023-02-15T15:08:51;34.67;;;19.30;;
24383;SDS011;12504;52.870;8.798;2023-02-15T15:13:57;37.42;;;20.60;;
24383;SDS011;12504;52.870;8.798;2023-02-15T15:19:01;34.63;;;20.58;;
24383;SDS011;12504;52.870;8.798;2023-02-15T15:21:51;33.40;;;20.58;;
24383;SDS011;12504;52.870;8.798;2023-02-15T15:30:01;32.27;;;19.90;;
24383;SDS011;12504;52.870;8.798;2023-02-15T15:38:17;36.58;;;20.20;;
24383;SDS011;12504;52.870;8.798;2023-02-15T15:43:47;35.03;;;19.88;;
24383;SDS011;12504;52.870;8.798;2023-02-15T15:46:41;37.33;;;20.15;;
24383;SDS011;12504;52.870;8.798;2023-02-15T15:49:31;44.47;;;20.75;;
24383;SDS011;12504;52.870;8.798;2023-02-15T15:52:02;36.75;;;20.02;;
24383;SDS011;12504;52.870;8.798;2023-02-15T15:54:37;36.08;;;20.52;;
24383;SDS011;12504;52.870;8.798;2023-02-15T15:57:04;32.42;;;18.70;;
24383;SDS011;12504;52.870;8.798;2023-02-15T15:59:36;38.45;;;21.27;;
24383;SDS011;12504;52.870;8.798;2023-02-15T16:02:13;43.05;;;22.23;;
24383;SDS011;12504;52.870;8.798;2023-02-15T16:04:43;42.65;;;23.88;;
24383;SDS011;12504;52.870;8.798;2023-02-15T16:07:20;40.25;;;22.15;;
24383;SDS011;12504;52.870;8.798;2023-02-15T16:09:53;40.03;;;21.45;;
24383;SDS011;12504;52.870;8.798;2023-02-15T16:12:20;36.33;;;19.83;;
24383;SDS011;12504;52.870;8.798;2023-02-15T16:14:46;43.00;;;21.95;;
24383;SDS011;12504;52.870;8.798;2023-02-15T16:17:34;34.38;;;19.77;;
24383;SDS011;12504;52.870;8.798;2023-02-15T16:20:04;47.22;;;23.67;;
24383;SDS011;12504;52.870;8.798;2023-02-15T16:22:48;41.40;;;22.33;;
24383;SDS011;12504;52.870;8.798;2023-02-15T16:27:52;48.35;;;23.75;;
24383;SDS011;12504;52.870;8.798;2023-02-15T16:30:34;43.42;;;25.15;;
24383;SDS011;12504;52.870;8.798;2023-02-15T16:33:13;45.75;;;23.38;;
24383;SDS011;12504;52.870;8.798;2023-02-15T16:35:42;45.47;;;24.48;;
24383;SDS011;12504;52.870;8.798;2023-02-15T16:41:06;52.33;;;26.15;;
24383;SDS011;12504;52.870;8.798;2023-02-15T16:43:33;76.25;;;30.83;;
24383;SDS011;12504;52.870;8.798;2023-02-15T16:46:06;54.72;;;28.75;;
24383;SDS011;12504;52.870;8.798;2023-02-15T16:48:38;55.08;;;30.73;;
24383;SDS011;12504;52.870;8.798;2023-02-15T16:51:06;58.33;;;31.63;;
24383;SDS011;12504;52.870;8.798;2023-02-15T16:53:33;68.28;;;33.10;;
24383;SDS011;12504;52.870;8.798;2023-02-15T16:56:00;50.00;;;27.42;;
24383;SDS011;12504;52.870;8.798;2023-02-15T16:58:30;57.97;;;29.67;;
24383;SDS011;12504;52.870;8.798;2023-02-15T17:01:07;88.60;;;45.83;;
24383;SDS011;12504;52.870;8.798;2023-02-15T17:03:35;82.38;;;42.00;;
24383;SDS011;12504;52.870;8.798;2023-02-15T17:06:02;71.50;;;40.53;;
24383;SDS011;12504;52.870;8.798;2023-02-15T17:11:43;74.13;;;38.67;;
24383;SDS011;12504;52.870;8.798;2023-02-15T17:14:10;63.55;;;33.78;;
24383;SDS011;12504;52.870;8.798;2023-02-15T17:16:46;71.90;;;37.45;;
24383;SDS011;12504;52.870;8.798;2023-02-15T17:19:22;64.47;;;35.20;;
24383;SDS011;12504;52.870;8.798;2023-02-15T17:22:16;61.42;;;32.53;;
24383;SDS011;12504;52.870;8.798;2023-02-15T17:24:43;61.20;;;32.05;;
24383;SDS011;12504;52.870;8.798;2023-02-15T17:27:23;61.08;;;33.47;;
24383;SDS011;12504;52.870;8.798;2023-02-15T17:29:51;58.30;;;30.17;;
24383;SDS011;12504;52.870;8.798;2023-02-15T17:32:22;49.00;;;25.85;;
24383;SDS011;12504;52.870;8.798;2023-02-15T17:42:45;59.53;;;26.98;;
24383;SDS011;12504;52.870;8.798;2023-02-15T17:45:11;56.53;;;29.30;;
24383;SDS011;12504;52.870;8.798;2023-02-15T17:47:36;63.70;;;29.00;;
24383;SDS011;12504;52.870;8.798;2023-02-15T17:50:03;58.65;;;27.70;;
24383;SDS011;12504;52.870;8.798;2023-02-15T17:52:29;55.80;;;27.92;;
24383;SDS011;12504;52.870;8.798;2023-02-15T17:54:55;49.90;;;27.48;;
24383;SDS011;12504;52.870;8.798;2023-02-15T17:57:40;61.10;;;30.02;;